Pagina principale
METAR-TAF:

METAR-TAF

Aeroporti :

Guilin, Cina

latitudine: 25-20N, longitudine: 110-18E, altezza: 166 m

Osservazione

Il bollettino è stato emesso 24 minuti fa, alle 04:00 UTC
Vento 4 kt da nord/nord-est, variando fra nord e est/sud-est
Temperature 14°C
Umidità 82%
Pressione 1024 hPa
Visibilità: 8000 m
Poco nuvoloso ad un'altezza di 1100 ft
Nubi sparse ad un'altezza di 3000 ft
Cielo coperto ad un'altezza di 4600 ft

METAR: ZGKL 210400Z 03002MPS 010V120 8000 FEW011 SCT030 OVC046 14/11 Q1024 NOSIG

Ora: 12:24 (04:24 UTC)

Previsione

Il bollettino è stato emesso 9 ore e 10 minuti fa, alle 19:14 UTC
Previsione valida dal 21 alle 00 UTC al 21 alle 24 UTC
Vento 6 kt da nord-est
Visibilità: 4000 m
Poco nuvoloso ad un'altezza di 600 ft
Nubi sparse ad un'altezza di 2000 ft
Cielo coperto ad un'altezza di 3000 ft
pioggia debole, foschia

TAF: ZGKL 201914Z 2100/2124 05003MPS 4000 -RA BR FEW006 SCT020 OVC030 TX14/2108Z TN10/2122Z

Osservazioni e previsioni meteorologiche di più di 4000 aeroporti (messaggi METAR e TAF).

Le stazioni disponibili sono rappresentate dai dischi gialli e rossi sulla carta.

Puntare il mouse per vedere il nome della stazione.

Clicca sopra per visualizzare le osservazioni e previsioni meteorologiche.

Per cambiare la mappa : fare clic sui pulsanti verdi con una croce nera per ingrandire, il pulsante verde con un trattino per diminuire, o sulla freccia verde per le mappe adiacenti.


METAR-TAF: